Terminal Aerodrome Forecast
Issued by NWS

Home | Current Version | Previous Version | Text Only | Print | Product List | Glossary On
Versions: 1 2 3 4 5 6 7 8 9 10 11 12 13 14 15 16 17 18 19 20 21 22 23 24 25 26 27 28 29 30 31 32 33 34
495
FTUS44 KFWD 231130
TAFGKY
TAF
KGKY 231130Z 2312/2412 03004KT 5SM BR VCTS SCT005CB BKN016
      TEMPO 2312/2316 2SM TSRA BR OVC005CB
     FM231600 06004KT 3SM -SHRA BR OVC005
     FM232300 10005KT 2SM BR OVC004=

USA.gov is the U.S. government's official web portal to all federal, state and local government web resources and services.